Time;durP1;ratioP1;P1;durP2;ratioP2;P2;SDS_P1;SDS_P2;PMS_P1;PMS_P2;Temp;Humidity;BMP_temperature;BMP_pressure;BME280_temperature;BME280_humidity;BME280_pressure;Samples;Min_cycle;Max_cycle;Signal;HPM_P1;HPM_P2
2021/03/25 00:05:06;;;;;;;23.67;4.30;;;3.90;1.00;;;;;;5076792;28;20201;-76
2021/03/25 00:08:06;;;;;;;10.63;3.75;;;3.80;1.00;;;;;;5076259;28;20156;-76
2021/03/25 00:11:05;;;;;;;11.48;4.68;;;3.80;1.00;;;;;;5076427;28;20256;-75
2021/03/25 00:14:05;;;;;;;14.05;4.38;;;3.80;1.00;;;;;;5075928;28;20160;-76
2021/03/25 00:16:36;;;;;;;12.98;4.40;;;;;;;;;;5055917;28;20203;-75
2021/03/25 00:22:05;;;;;;;10.25;5.38;;;;;;;;;;5068056;28;20186;-76
2021/03/25 00:25:11;;;;;;;11.63;5.25;;;3.60;1.00;;;;;;5065458;28;20252;-75
2021/03/25 00:37:42;;;;;;;11.43;4.60;;;3.50;1.00;;;;;;5075347;28;20656;-76
2021/03/25 00:40:09;;;;;;;14.97;4.30;;;3.50;1.00;;;;;;5075947;28;20253;-75
2021/03/25 00:42:54;;;;;;;9.20;4.07;;;;;;;;;;5071863;28;20202;-76
2021/03/25 00:45:38;;;;;;;11.88;4.10;;;3.50;1.00;;;;;;5062761;28;20261;-76
2021/03/25 00:48:29;;;;;;;8.93;4.53;;;3.50;1.00;;;;;;5074934;28;20687;-76
2021/03/25 00:51:17;;;;;;;11.13;3.83;;;3.50;1.00;;;;;;5075213;28;20213;-76
2021/03/25 00:54:05;;;;;;;21.55;5.28;;;3.50;1.00;;;;;;5075538;28;20530;-75
2021/03/25 00:56:39;;;;;;;9.38;4.40;;;;;;;;;;5075270;28;20163;-76
2021/03/25 00:59:41;;;;;;;11.05;4.88;;;3.40;1.00;;;;;;5075262;28;20151;-76
2021/03/25 01:02:24;;;;;;;12.75;4.95;;;;;;;;;;5075104;28;20207;-75
2021/03/25 01:04:54;;;;;;;8.95;4.43;;;;;;;;;;5075178;28;20155;-76
2021/03/25 01:07:36;;;;;;;7.78;4.20;;;;;;;;;;5075016;28;20159;-76
2021/03/25 01:10:17;;;;;;;8.30;4.00;;;3.20;1.00;;;;;;5075258;28;20167;-75
2021/03/25 01:13:37;;;;;;;11.00;5.15;;;3.30;1.00;;;;;;5074488;28;20207;-76
2021/03/25 01:16:06;;;;;;;16.55;4.25;;;3.20;1.00;;;;;;5032841;28;20272;-76
2021/03/25 01:18:54;;;;;;;15.45;5.25;;;3.20;1.00;;;;;;5034397;28;20180;-76
2021/03/25 01:21:26;;;;;;;10.57;5.60;;;;;;;;;;5032842;28;20223;-77
2021/03/25 01:24:11;;;;;;;9.82;4.20;;;3.20;1.00;;;;;;5032759;28;20184;-75
2021/03/25 01:27:05;;;;;;;10.35;4.28;;;3.10;1.00;;;;;;5033346;28;20199;-75
2021/03/25 01:29:42;;;;;;;18.48;4.72;;;;;;;;;;5052778;28;20175;-76
2021/03/25 01:32:08;;;;;;;10.90;4.47;;;;;;;;;;5070981;28;20644;-76
2021/03/25 01:34:42;;;;;;;10.40;3.88;;;;;;;;;;5072315;28;20163;-75
2021/03/25 01:37:24;;;;;;;28.63;4.00;;;;;;;;;;5072481;28;20191;-76
2021/03/25 01:39:54;;;;;;;15.27;4.38;;;;;;;;;;5072721;28;20198;-75
2021/03/25 01:42:47;;;;;;;11.40;4.55;;;2.90;1.00;;;;;;5067450;28;20183;-75
2021/03/25 01:48:56;;;;;;;9.63;3.80;;;2.80;1.00;;;;;;5052103;28;20680;-75
2021/03/25 01:51:36;;;;;;;13.77;4.70;;;;;;;;;;5066919;28;20198;-76
2021/03/25 01:58:17;;;;;;;15.10;5.07;;;2.80;1.00;;;;;;5074007;28;20224;-75
2021/03/25 02:01:19;;;;;;;10.13;4.32;;;2.70;1.00;;;;;;5074027;28;20171;-75
2021/03/25 02:04:00;;;;;;;10.77;4.43;;;;;;;;;;5072108;28;20178;-75
2021/03/25 02:09:57;;;;;;;12.50;3.88;;;2.70;1.00;;;;;;5074535;28;20201;-75
2021/03/25 02:13:05;;;;;;;14.15;5.15;;;2.70;1.00;;;;;;5073909;28;20648;-76
2021/03/25 02:15:34;;;;;;;12.05;5.32;;;;;;;;;;5074209;28;20249;-76
2021/03/25 02:18:10;;;;;;;9.32;4.28;;;2.70;1.00;;;;;;5073558;28;20168;-76
2021/03/25 02:34:10;;;;;;;10.55;4.40;;;2.60;1.00;;;;;;5053927;28;20217;-76
2021/03/25 02:36:59;;;;;;;8.68;3.25;;;2.50;1.00;;;;;;5061923;28;20183;-76
2021/03/25 02:39:38;;;;;;;9.30;3.67;;;;;;;;;;5053430;28;20250;-76
2021/03/25 02:42:23;;;;;;;9.23;4.60;;;2.50;1.00;;;;;;5067783;28;20614;-75
2021/03/25 02:44:58;;;;;;;8.50;4.65;;;;;;;;;;5067105;28;20191;-76
2021/03/25 02:47:26;;;;;;;8.20;4.65;;;2.40;1.00;;;;;;5073420;28;20189;-76
2021/03/25 02:50:17;;;;;;;8.93;4.45;;;2.40;1.00;;;;;;5073700;28;20267;-76
2021/03/25 02:53:23;;;;;;;11.50;4.32;;;2.40;1.00;;;;;;5073495;28;20170;-76
2021/03/25 02:56:41;;;;;;;6.90;3.83;;;2.40;1.00;;;;;;5073685;28;20151;-75
2021/03/25 02:59:29;;;;;;;9.73;5.45;;;;;;;;;;5073570;28;20183;-75
2021/03/25 03:02:09;;;;;;;9.82;4.45;;;2.30;1.00;;;;;;5073063;28;20629;-75
2021/03/25 03:05:13;;;;;;;10.30;3.88;;;2.30;1.00;;;;;;5073341;28;20556;-76
2021/03/25 03:08:04;;;;;;;6.18;3.83;;;2.30;1.00;;;;;;5073122;28;20157;-76
2021/03/25 03:14:11;;;;;;;16.80;4.80;;;2.20;1.00;;;;;;5073152;28;20190;-75
2021/03/25 03:16:58;;;;;;;10.75;3.67;;;2.20;1.00;;;;;;5073310;28;20562;-76
2021/03/25 03:20:13;;;;;;;10.73;5.05;;;2.20;1.00;;;;;;5062250;28;20182;-76
2021/03/25 03:26:09;;;;;;;7.57;3.70;;;;;;;;;;4997745;28;20180;-76
2021/03/25 03:28:53;;;;;;;8.02;3.95;;;;;;;;;;4991809;28;20172;-75
2021/03/25 03:31:37;;;;;;;6.55;4.18;;;2.00;1.00;;;;;;5001450;28;20199;-76
2021/03/25 03:34:39;;;;;;;8.50;3.30;;;1.90;1.00;;;;;;5011607;28;20185;-76
2021/03/25 03:37:26;;;;;;;7.75;3.08;;;1.90;1.00;;;;;;4973402;28;20193;-76
2021/03/25 03:40:25;;;;;;;6.18;3.20;;;1.90;1.00;;;;;;4975902;28;20659;-76
2021/03/25 03:42:59;;;;;;;7.63;3.85;;;1.80;1.00;;;;;;4975106;28;20173;-76
2021/03/25 03:45:25;;;;;;;16.23;4.22;;;;;;;;;;4974548;28;20262;-75
2021/03/25 03:47:54;;;;;;;4.38;3.40;;;1.80;1.00;;;;;;4975008;28;20202;-75
2021/03/25 03:50:54;;;;;;;6.15;4.03;;;1.90;1.00;;;;;;4975625;28;20269;-76
2021/03/25 03:53:26;;;;;;;6.15;3.17;;;1.80;1.00;;;;;;4975764;28;20182;-76
2021/03/25 03:56:35;;;;;;;9.10;4.35;;;1.80;1.00;;;;;;4957419;28;20178;-75
2021/03/25 03:59:11;;;;;;;4.80;3.35;;;1.80;1.00;;;;;;4965512;28;20186;-76
2021/03/25 04:05:25;;;;;;;6.75;3.63;;;1.80;1.00;;;;;;5006253;28;20192;-76
2021/03/25 04:08:00;;;;;;;5.45;3.50;;;;;;;;;;5006771;28;20223;-75
2021/03/25 04:11:07;;;;;;;13.77;5.75;;;1.80;1.00;;;;;;5014403;28;20172;-75
2021/03/25 04:14:17;;;;;;;9.60;5.00;;;1.70;1.00;;;;;;5067493;28;20200;-76
2021/03/25 04:17:06;;;;;;;11.38;3.95;;;1.80;1.00;;;;;;5075879;28;20189;-75
2021/03/25 04:20:02;;;;;;;7.70;4.45;;;1.80;1.00;;;;;;5085898;28;20188;-75
2021/03/25 04:22:31;;;;;;;7.80;4.70;;;1.70;1.00;;;;;;5095873;28;20196;-75
2021/03/25 04:25:19;;;;;;;9.10;3.97;;;1.70;1.00;;;;;;5096018;28;20159;-76
2021/03/25 04:28:11;;;;;;;15.15;4.25;;;1.70;1.00;;;;;;5086023;28;20159;-76
2021/03/25 04:30:53;;;;;;;7.72;4.78;;;1.70;1.00;;;;;;5075741;28;20192;-75
2021/03/25 04:33:41;;;;;;;11.05;4.80;;;1.70;1.00;;;;;;5075098;28;20526;-75
2021/03/25 04:36:19;;;;;;;10.70;4.30;;;1.70;1.00;;;;;;5076164;28;20179;-75
2021/03/25 04:38:54;;;;;;;6.05;3.60;;;;;;;;;;5075739;28;20491;-76
2021/03/25 04:41:32;;;;;;;6.38;3.95;;;1.70;1.00;;;;;;5075797;28;20178;-75
2021/03/25 04:44:03;;;;;;;11.02;4.78;;;1.70;1.00;;;;;;5075709;28;20163;-75
2021/03/25 04:56:34;;;;;;;15.85;4.18;;;1.60;1.00;;;;;;5075796;28;20216;-83
2021/03/25 05:02:23;;;;;;;9.30;4.15;;;1.50;1.00;;;;;;5059769;28;20221;-84
2021/03/25 05:08:53;;;;;;;10.65;5.43;;;1.50;1.00;;;;;;5055427;28;20179;-86
2021/03/25 05:11:36;;;;;;;9.85;4.82;;;;;;;;;;5054292;28;20192;-83
2021/03/25 05:14:21;;;;;;;11.80;4.53;;;1.50;1.00;;;;;;5066716;28;20261;-76
2021/03/25 05:20:18;;;;;;;6.82;3.80;;;;;;;;;;5080374;28;20723;-79
2021/03/25 05:23:23;;;;;;;13.32;3.90;;;1.60;1.00;;;;;;5074555;28;20193;-76
2021/03/25 05:26:14;;;;;;;6.75;3.53;;;1.50;1.00;;;;;;5075187;28;20166;-76
2021/03/25 05:28:55;;;;;;;6.30;3.78;;;;;;;;;;5074865;28;20155;-76
2021/03/25 05:35:35;;;;;;;12.35;4.97;;;1.60;1.00;;;;;;5074758;28;20185;-76
2021/03/25 05:38:02;;;;;;;8.02;4.72;;;1.60;1.00;;;;;;5074735;28;20160;-76
2021/03/25 05:40:36;;;;;;;7.40;3.83;;;;;;;;;;5074296;28;20166;-76
2021/03/25 05:43:05;;;;;;;10.18;4.30;;;;;;;;;;5073848;28;20175;-76
2021/03/25 05:46:26;;;;;;;8.45;4.22;;;1.70;1.00;;;;;;5074192;28;20535;-76
2021/03/25 05:48:54;;;;;;;10.43;4.75;;;;;;;;;;5020044;28;20236;-76
2021/03/25 05:54:40;;;;;;;16.17;3.90;;;;;;;;;;5012208;28;20192;-76
2021/03/25 05:57:35;;;;;;;7.88;4.15;;;2.00;1.00;;;;;;5012747;28;20607;-75
2021/03/25 06:00:38;;;;;;;9.43;4.20;;;2.00;1.00;;;;;;5011878;28;20181;-75
2021/03/25 06:03:19;;;;;;;9.10;4.00;;;2.20;1.00;;;;;;5032169;28;20198;-77
2021/03/25 06:06:25;;;;;;;11.90;4.55;;;2.30;1.00;;;;;;5046588;28;20178;-76
2021/03/25 06:09:12;;;;;;;13.98;5.88;;;2.40;1.00;;;;;;5047188;28;20202;-75
2021/03/25 06:11:55;;;;;;;7.78;4.60;;;;;;;;;;5031988;28;20203;-75
2021/03/25 06:18:17;;;;;;;10.23;4.68;;;;;;;;;;5028200;28;20284;-75
2021/03/25 06:24:44;;;;;;;11.13;4.55;;;2.80;1.00;;;;;;5058310;28;20526;-76
2021/03/25 06:27:27;;;;;;;12.18;5.40;;;2.90;1.00;;;;;;5073923;28;20517;-75
2021/03/25 06:30:06;;;;;;;12.43;5.47;;;;;;;;;;5073872;28;20155;-75
2021/03/25 06:32:55;;;;;;;11.75;5.60;;;3.00;1.00;;;;;;5073555;28;20295;-76
2021/03/25 06:35:59;;;;;;;14.68;5.75;;;3.20;1.00;;;;;;5073809;28;20174;-75
2021/03/25 06:42:01;;;;;;;12.20;5.68;;;3.50;1.00;;;;;;5053706;28;20183;-76
2021/03/25 06:45:17;;;;;;;14.48;5.32;;;3.60;1.00;;;;;;5053362;28;20249;-76
2021/03/25 06:48:11;;;;;;;12.57;5.40;;;3.90;1.00;;;;;;5057256;28;20660;-75
2021/03/25 06:51:32;;;;;;;9.57;5.40;;;4.00;1.00;;;;;;5067625;28;20244;-76
2021/03/25 06:54:17;;;;;;;14.80;6.75;;;4.20;1.00;;;;;;5020750;28;20180;-76
2021/03/25 06:56:45;;;;;;;20.67;6.28;;;4.30;1.00;;;;;;5018186;28;20184;-76
2021/03/25 06:59:30;;;;;;;15.02;6.85;;;;;;;;;;5029286;28;20255;-75
2021/03/25 07:02:33;;;;;;;15.25;6.80;;;4.60;1.00;;;;;;5031542;28;20188;-75
2021/03/25 07:05:19;;;;;;;20.60;6.38;;;5.00;1.00;;;;;;4953464;29;20221;-76
2021/03/25 07:08:05;;;;;;;13.25;5.70;;;5.20;1.00;;;;;;4945119;29;20662;-75
2021/03/25 07:10:31;;;;;;;16.02;7.10;;;;;;;;;;4934806;29;20208;-76
2021/03/25 07:13:04;;;;;;;12.85;6.40;;;5.50;1.00;;;;;;4936083;29;20243;-75
2021/03/25 07:15:33;;;;;;;14.67;7.57;;;5.70;1.00;;;;;;4936559;29;20216;-76
2021/03/25 07:18:06;;;;;;;18.87;8.40;;;5.90;1.00;;;;;;4936543;29;20475;-76
2021/03/25 07:20:37;;;;;;;18.37;7.83;;;6.00;1.00;;;;;;4936115;29;20531;-76
2021/03/25 07:23:09;;;;;;;20.47;8.40;;;6.20;1.00;;;;;;4936732;29;20427;-76
2021/03/25 07:25:40;;;;;;;18.27;8.40;;;6.30;1.00;;;;;;4936376;29;20475;-76
2021/03/25 07:28:18;;;;;;;15.50;7.70;;;6.40;1.00;;;;;;4969294;28;20425;-75
2021/03/25 07:31:03;;;;;;;12.33;6.80;;;6.60;1.00;;;;;;5009138;28;20415;-76
2021/03/25 07:33:38;;;;;;;14.60;6.90;;;6.70;1.00;;;;;;5013495;28;20435;-76
2021/03/25 07:36:14;;;;;;;23.07;6.80;;;6.90;1.00;;;;;;5013749;28;20478;-77
2021/03/25 07:38:41;;;;;;;13.93;7.10;;;7.00;1.00;;;;;;5036377;28;20511;-76
2021/03/25 07:41:16;;;;;;;22.23;8.70;;;7.20;1.00;;;;;;5074415;28;20417;-76
2021/03/25 07:44:04;;;;;;;15.80;8.17;;;7.40;1.00;;;;;;5075939;28;20412;-75
2021/03/25 07:46:48;;;;;;;20.03;8.60;;;7.50;1.00;;;;;;5072992;28;20389;-76
2021/03/25 07:49:16;;;;;;;18.50;8.33;;;7.70;1.00;;;;;;5061917;28;20431;-76
2021/03/25 07:51:42;;;;;;;19.00;9.27;;;;;;;;;;5057094;28;20464;-77
2021/03/25 07:54:29;;;;;;;16.07;8.80;;;8.00;1.00;;;;;;5073611;28;20402;-77
2021/03/25 07:57:03;;;;;;;24.43;8.50;;;8.10;1.00;;;;;;5074318;28;20405;-76
2021/03/25 07:59:46;;;;;;;15.60;8.53;;;8.20;1.00;;;;;;5068744;28;20821;-75
2021/03/25 08:02:26;;;;;;;29.43;10.20;;;8.30;1.00;;;;;;5071685;28;20499;-76
2021/03/25 08:04:52;;;;;;;17.40;8.60;;;;;;;;;;5075624;28;20389;-76
2021/03/25 08:07:19;;;;;;;15.80;8.33;;;8.50;1.00;;;;;;5073625;28;20431;-76
2021/03/25 08:09:53;;;;;;;16.33;8.17;;;8.70;1.00;;;;;;5071333;28;20775;-76
2021/03/25 08:12:27;;;;;;;15.03;7.90;;;8.70;1.00;;;;;;5075175;28;20452;-76
2021/03/25 08:15:07;;;;;;;16.30;8.77;;;8.80;1.00;;;;;;5074008;28;20903;-76
2021/03/25 08:17:45;;;;;;;20.00;8.53;;;8.90;1.00;;;;;;5076464;28;20409;-76
2021/03/25 08:20:21;;;;;;;19.00;8.90;;;9.00;1.00;;;;;;5063970;28;20489;-76
2021/03/25 08:22:53;;;;;;;12.30;7.63;;;9.10;1.00;;;;;;5058539;28;20859;-76
2021/03/25 08:25:57;;;;;;;17.73;9.10;;;9.20;1.00;;;;;;5075373;28;20923;-76
2021/03/25 08:28:47;;;;;;;17.10;7.90;;;9.40;1.00;;;;;;5018744;28;20533;-76
2021/03/25 08:31:31;;;;;;;13.30;8.40;;;9.50;1.00;;;;;;4996937;28;20955;-76
2021/03/25 08:34:11;;;;;;;15.13;7.80;;;9.70;1.00;;;;;;5006377;28;20523;-76
2021/03/25 08:36:37;;;;;;;15.30;7.57;;;;;;;;;;5012675;28;20431;-76
2021/03/25 08:39:11;;;;;;;14.27;7.50;;;9.90;1.00;;;;;;5005431;28;20459;-76
2021/03/25 08:41:37;;;;;;;16.03;7.30;;;;;;;;;;5011472;28;20424;-76
2021/03/25 08:44:22;;;;;;;15.40;6.63;;;10.20;1.00;;;;;;5012840;28;20553;-75
2021/03/25 08:46:56;;;;;;;14.93;6.87;;;10.40;1.00;;;;;;5001849;28;20433;-76
2021/03/25 08:49:32;;;;;;;20.70;8.17;;;10.50;1.00;;;;;;4996134;28;20906;-77
2021/03/25 08:51:59;;;;;;;14.90;8.03;;;10.60;1.00;;;;;;5010725;28;20475;-77
2021/03/25 08:54:25;;;;;;;14.10;7.63;;;;;;;;;;5010727;28;20510;-77
2021/03/25 08:57:03;;;;;;;15.10;7.40;;;10.80;1.00;;;;;;5012536;28;20496;-77
2021/03/25 08:59:52;;;;;;;13.70;7.70;;;10.90;1.00;;;;;;5012378;28;20779;-76
2021/03/25 09:02:24;;;;;;;16.73;7.40;;;11.10;1.00;;;;;;5023893;28;20436;-76
2021/03/25 09:04:56;;;;;;;11.40;6.80;;;11.10;1.00;;;;;;5074054;28;20432;-76
2021/03/25 09:07:27;;;;;;;12.87;7.47;;;11.20;1.00;;;;;;5055629;28;20624;-76
2021/03/25 09:10:26;;;;;;;19.20;8.40;;;11.30;1.00;;;;;;5068691;28;20427;-76
2021/03/25 09:12:52;;;;;;;21.37;7.53;;;;;;;;;;5064821;28;20485;-76
2021/03/25 09:15:20;;;;;;;20.87;7.20;;;;;;;;;;5074160;28;20896;-75
2021/03/25 09:18:03;;;;;;;12.00;7.60;;;11.50;1.00;;;;;;5058527;28;20408;-76
2021/03/25 09:20:34;;;;;;;15.33;7.77;;;11.50;1.00;;;;;;5069551;28;20484;-76
2021/03/25 09:23:20;;;;;;;17.73;7.87;;;11.60;1.00;;;;;;5071294;28;20455;-76
2021/03/25 09:25:46;;;;;;;13.10;7.17;;;;;;;;;;5073499;28;20436;-75
2021/03/25 09:28:19;;;;;;;16.00;7.17;;;11.90;1.00;;;;;;5073417;28;20389;-76
2021/03/25 09:31:10;;;;;;;11.93;7.27;;;11.90;1.00;;;;;;5074012;28;20404;-76
2021/03/25 09:33:36;;;;;;;19.30;7.17;;;;;;;;;;5073402;28;20759;-76
2021/03/25 09:36:22;;;;;;;18.53;7.27;;;12.20;1.00;;;;;;5073286;28;20420;-75
2021/03/25 09:39:20;;;;;;;10.93;6.70;;;12.30;1.00;;;;;;5062849;28;20428;-77
2021/03/25 09:42:23;;;;;;;15.83;8.30;;;12.50;1.00;;;;;;5074180;28;20451;-77
2021/03/25 09:44:54;;;;;;;13.77;7.43;;;12.40;1.00;;;;;;5054796;28;20396;-76
2021/03/25 09:47:35;;;;;;;17.57;7.33;;;12.50;1.00;;;;;;5054393;28;20381;-77
2021/03/25 09:50:02;;;;;;;14.37;8.00;;;;;;;;;;5055115;28;20417;-76
2021/03/25 09:53:06;;;;;;;22.30;8.87;;;12.40;1.00;;;;;;5072088;28;20475;-75
2021/03/25 09:55:35;;;;;;;22.77;8.90;;;12.60;1.00;;;;;;5089573;28;20379;-76
2021/03/25 09:58:02;;;;;;;15.13;6.40;;;12.60;1.00;;;;;;5081401;28;20425;-76
2021/03/25 10:00:28;;;;;;;16.70;8.80;;;;;;;;;;5071875;28;20409;-76
2021/03/25 10:02:54;;;;;;;15.93;8.00;;;;;;;;;;5073104;28;20394;-76
2021/03/25 10:05:20;;;;;;;16.27;7.90;;;;;;;;;;5070877;28;20429;-76
2021/03/25 10:07:48;;;;;;;15.20;7.07;;;12.70;1.00;;;;;;5081507;28;20398;-76
2021/03/25 10:10:35;;;;;;;14.17;7.53;;;12.80;1.00;;;;;;5093265;28;20892;-76
2021/03/25 10:13:01;;;;;;;15.57;7.60;;;;;;;;;;5073551;28;20498;-76
2021/03/25 10:15:33;;;;;;;16.93;8.50;;;13.00;1.00;;;;;;5073197;28;20736;-75
2021/03/25 10:18:04;;;;;;;16.17;8.80;;;13.10;1.00;;;;;;5069500;28;20424;-75
2021/03/25 10:21:05;;;;;;;13.00;7.80;;;13.10;1.00;;;;;;5071293;28;20432;-75
2021/03/25 10:23:38;;;;;;;17.67;8.70;;;13.30;1.00;;;;;;5059925;28;20780;-76
2021/03/25 10:26:05;;;;;;;18.43;8.30;;;;;;;;;;5072593;28;20393;-76
2021/03/25 10:28:34;;;;;;;12.50;6.93;;;13.70;1.00;;;;;;5072739;28;20404;-76
2021/03/25 10:31:22;;;;;;;15.00;7.57;;;13.80;1.00;;;;;;5073114;28;20954;-75
2021/03/25 10:33:52;;;;;;;13.67;7.40;;;13.80;1.00;;;;;;5072702;28;20372;-75
2021/03/25 10:36:42;;;;;;;15.70;7.63;;;13.90;1.00;;;;;;5072800;28;20417;-75
2021/03/25 10:39:18;;;;;;;17.27;8.37;;;14.00;1.00;;;;;;5072617;28;20429;-75
2021/03/25 10:41:44;;;;;;;13.43;6.93;;;;;;;;;;5068540;28;20432;-76
2021/03/25 10:44:32;;;;;;;14.50;7.50;;;14.20;1.00;;;;;;5061105;28;20778;-74
2021/03/25 10:47:04;;;;;;;18.50;8.07;;;14.40;1.00;;;;;;5055706;28;20405;-75
2021/03/25 10:49:42;;;;;;;16.17;8.27;;;14.60;1.00;;;;;;5059409;28;20418;-75
2021/03/25 10:52:38;;;;;;;18.67;8.23;;;14.70;1.00;;;;;;5068975;28;20485;-75
2021/03/25 10:55:29;;;;;;;18.90;8.33;;;14.70;1.00;;;;;;5000785;28;20410;-75
2021/03/25 10:58:00;;;;;;;15.17;7.67;;;14.70;1.00;;;;;;5006426;28;20407;-75
2021/03/25 11:00:36;;;;;;;14.17;7.80;;;14.80;1.00;;;;;;4998249;28;20784;-75
2021/03/25 11:03:20;;;;;;;13.77;6.67;;;15.00;1.00;;;;;;4999600;28;20389;-75
2021/03/25 11:05:55;;;;;;;17.60;7.83;;;15.30;1.00;;;;;;5014380;28;20539;-75
2021/03/25 11:08:35;;;;;;;17.90;8.27;;;15.40;1.00;;;;;;4997821;28;20469;-75
2021/03/25 11:11:06;;;;;;;19.27;8.43;;;15.50;1.00;;;;;;5013754;28;20451;-75
2021/03/25 11:13:32;;;;;;;18.50;8.53;;;;;;;;;;4997570;28;21019;-75
2021/03/25 11:15:58;;;;;;;17.97;7.60;;;;;;;;;;4995314;28;20421;-77
2021/03/25 11:18:37;;;;;;;16.17;7.70;;;15.80;1.00;;;;;;5013867;28;20414;-76
2021/03/25 11:21:05;;;;;;;17.83;7.67;;;15.70;1.00;;;;;;4994354;28;20425;-76
2021/03/25 11:23:32;;;;;;;23.67;7.50;;;15.60;1.00;;;;;;4994433;28;20383;-76
2021/03/25 11:26:03;;;;;;;16.07;7.47;;;15.50;1.00;;;;;;4994745;28;20442;-76
2021/03/25 11:28:35;;;;;;;16.13;7.53;;;15.30;1.00;;;;;;4995751;28;20855;-76
2021/03/25 11:31:28;;;;;;;15.97;7.47;;;15.50;1.00;;;;;;5027975;28;20468;-75
2021/03/25 11:33:55;;;;;;;17.00;7.20;;;;;;;;;;5059324;28;20434;-75
2021/03/25 11:36:43;;;;;;;19.30;7.43;;;15.60;1.00;;;;;;5065749;28;20473;-75
2021/03/25 11:39:31;;;;;;;16.80;7.33;;;15.70;1.00;;;;;;5075851;28;20401;-75
2021/03/25 11:42:03;;;;;;;11.70;7.07;;;15.80;1.00;;;;;;5075802;28;20492;-75
2021/03/25 11:45:03;;;;;;;18.37;8.57;;;15.80;1.00;;;;;;5074725;28;20395;-75
2021/03/25 11:47:34;;;;;;;14.63;7.50;;;;;;;;;;5053710;28;20817;-76
2021/03/25 11:50:26;;;;;;;18.33;8.20;;;16.10;1.00;;;;;;5053042;28;20868;-76
2021/03/25 11:52:57;;;;;;;20.33;7.83;;;16.20;1.00;;;;;;5012414;28;20973;-77
2021/03/25 11:55:55;;;;;;;24.03;9.17;;;16.10;1.00;;;;;;5010667;28;20424;-77
2021/03/25 11:58:23;;;;;;;14.30;8.03;;;16.30;1.00;;;;;;5011550;28;20420;-77
2021/03/25 12:01:21;;;;;;;15.73;8.00;;;16.50;1.00;;;;;;5014014;28;20720;-75
2021/03/25 12:03:47;;;;;;;14.30;7.70;;;;;;;;;;5013326;28;20406;-75
2021/03/25 12:06:17;;;;;;;17.83;8.40;;;16.60;1.00;;;;;;5013484;28;20491;-75
2021/03/25 12:08:43;;;;;;;16.00;8.17;;;;;;;;;;5013207;28;20398;-75
2021/03/25 12:11:10;;;;;;;18.90;8.50;;;;;;;;;;5013261;28;20466;-75
2021/03/25 12:13:37;;;;;;;14.20;7.17;;;16.30;1.00;;;;;;5013309;28;20499;-75
2021/03/25 12:16:05;;;;;;;19.33;7.97;;;16.30;1.00;;;;;;5013152;28;20432;-75
2021/03/25 12:18:35;;;;;;;14.30;7.90;;;16.40;1.00;;;;;;5023320;28;20502;-75
2021/03/25 12:21:06;;;;;;;14.80;7.83;;;16.20;1.00;;;;;;5032692;28;20895;-75
2021/03/25 12:23:34;;;;;;;17.87;8.33;;;16.30;1.00;;;;;;5032857;28;20400;-75
2021/03/25 12:26:05;;;;;;;24.93;8.80;;;16.30;1.00;;;;;;5032755;28;20502;-75
2021/03/25 12:28:31;;;;;;;17.80;7.73;;;;;;;;;;5032654;28;20414;-75
2021/03/25 12:30:57;;;;;;;23.10;8.20;;;;;;;;;;5073996;28;20879;-75
2021/03/25 12:33:35;;;;;;;45.83;11.13;;;16.30;1.00;;;;;;5072537;28;20481;-75
2021/03/25 12:36:01;;;;;;;18.73;8.20;;;;;;;;;;5069350;28;20403;-75
2021/03/25 12:38:29;;;;;;;20.33;8.47;;;16.60;1.00;;;;;;5073980;28;20406;-75
2021/03/25 12:40:55;;;;;;;20.20;8.90;;;;;;;;;;5074789;28;20734;-75
2021/03/25 12:43:24;;;;;;;22.53;8.80;;;17.00;1.00;;;;;;5074009;28;20429;-75
2021/03/25 12:45:52;;;;;;;18.50;9.10;;;17.20;1.00;;;;;;5074916;28;20866;-75
2021/03/25 12:48:20;;;;;;;23.33;9.33;;;17.20;1.00;;;;;;5074458;28;20402;-75
2021/03/25 12:50:46;;;;;;;48.37;12.73;;;;;;;;;;5063934;28;20855;-75
2021/03/25 12:53:12;;;;;;;17.10;7.37;;;;;;;;;;5071853;28;20974;-75
2021/03/25 12:55:38;;;;;;;27.23;9.70;;;;;;;;;;5069920;28;20479;-75
2021/03/25 12:58:05;;;;;;;26.50;9.97;;;17.00;1.00;;;;;;5074204;28;20477;-75
2021/03/25 13:00:31;;;;;;;25.03;10.77;;;;;;;;;;5073847;28;20433;-75
2021/03/25 13:02:57;;;;;;;29.50;11.63;;;;;;;;;;5074048;28;20395;-75
2021/03/25 13:05:24;;;;;;;29.80;11.10;;;;;;;;;;5061640;28;20899;-75
2021/03/25 13:07:50;;;;;;;24.57;11.03;;;;;;;;;;5054043;28;20390;-75
2021/03/25 13:10:26;;;;;;;25.40;11.00;;;17.10;1.00;;;;;;5069674;28;20392;-75
2021/03/25 13:12:53;;;;;;;29.17;10.60;;;;;;;;;;5058182;28;20804;-75
2021/03/25 13:15:21;;;;;;;25.77;11.40;;;;;;;;;;5084645;28;20416;-75
2021/03/25 13:17:47;;;;;;;21.20;10.30;;;;;;;;;;5078861;28;20442;-76
2021/03/25 13:20:14;;;;;;;32.30;12.53;;;;;;;;;;5073144;28;20508;-77
2021/03/25 13:22:40;;;;;;;24.50;11.53;;;;;;;;;;5073608;28;20377;-77
2021/03/25 13:25:08;;;;;;;35.13;11.30;;;17.30;1.00;;;;;;5074163;28;20395;-77
2021/03/25 13:27:34;;;;;;;25.80;11.57;;;;;;;;;;5073559;28;20402;-78
2021/03/25 13:30:00;;;;;;;29.80;12.77;;;;;;;;;;5066710;28;20419;-78
2021/03/25 13:32:26;;;;;;;33.10;11.53;;;;;;;;;;5069466;28;20528;-75
2021/03/25 13:34:52;;;;;;;23.47;10.53;;;;;;;;;;5054282;28;20470;-75
2021/03/25 13:37:18;;;;;;;28.00;12.83;;;;;;;;;;5072383;28;20423;-75
2021/03/25 13:39:48;;;;;;;29.43;11.77;;;17.50;1.00;;;;;;5073585;28;20406;-75
2021/03/25 13:42:15;;;;;;;31.43;12.57;;;;;;;;;;5073420;28;20417;-75
2021/03/25 13:44:41;;;;;;;27.17;11.60;;;17.80;1.00;;;;;;5073335;28;20394;-75
2021/03/25 13:47:07;;;;;;;26.10;11.20;;;17.90;1.00;;;;;;5073603;28;20394;-77
2021/03/25 13:49:33;;;;;;;23.17;10.43;;;18.00;1.00;;;;;;5069172;28;20483;-77
2021/03/25 13:51:59;;;;;;;24.97;11.00;;;18.10;1.00;;;;;;5073245;28;20458;-77
2021/03/25 13:54:24;;;;;;;35.03;11.37;;;18.20;1.00;;;;;;5061225;28;20802;-77
2021/03/25 13:56:50;;;;;;;33.17;10.90;;;18.20;1.00;;;;;;5068462;28;20185;-77
2021/03/25 13:59:16;;;;;;;22.70;9.90;;;;;;;;;;5070738;28;20595;-77
2021/03/25 14:01:41;;;;;;;23.07;10.10;;;18.30;1.00;;;;;;5071901;28;20204;-75
2021/03/25 14:04:08;;;;;;;29.20;11.40;;;;;;;;;;5073188;28;20464;-75
2021/03/25 14:06:34;;;;;;;30.63;14.20;;;;;;;;;;5073165;28;20168;-75
2021/03/25 14:09:00;;;;;;;32.80;13.60;;;;;;;;;;5073172;28;20395;-75
2021/03/25 14:11:26;;;;;;;26.10;12.03;;;18.00;1.00;;;;;;5067770;28;20429;-75
2021/03/25 14:13:52;;;;;;;39.30;14.97;;;;;;;;;;5066210;28;20479;-75
2021/03/25 14:16:18;;;;;;;35.97;14.00;;;18.00;1.00;;;;;;5072746;28;20418;-75
2021/03/25 14:18:47;;;;;;;33.40;14.20;;;;;;;;;;5073044;28;20432;-75
2021/03/25 14:21:14;;;;;;;32.40;13.20;;;18.30;1.00;;;;;;5068629;28;20651;-75
2021/03/25 14:23:40;;;;;;;37.40;15.27;;;18.30;1.00;;;;;;5063827;28;20472;-75
2021/03/25 14:26:06;;;;;;;40.17;14.40;;;18.30;1.00;;;;;;5069722;28;20438;-74
2021/03/25 14:28:31;;;;;;;33.53;13.83;;;18.40;1.00;;;;;;5070740;28;20237;-75
2021/03/25 14:30:57;;;;;;;31.20;13.93;;;;;;;;;;5053685;28;20166;-75
2021/03/25 14:33:24;;;;;;;32.17;13.90;;;18.70;1.00;;;;;;5054108;28;20602;-75
2021/03/25 14:35:51;;;;;;;34.17;14.73;;;18.80;1.00;;;;;;5053973;28;20424;-75
2021/03/25 14:38:19;;;;;;;39.30;15.17;;;18.90;1.00;;;;;;5053713;28;20458;-76
2021/03/25 14:40:50;;;;;;;38.10;15.33;;;18.70;1.00;;;;;;5070531;28;20431;-75
2021/03/25 14:46:37;;;;;;;36.50;14.43;;;18.50;1.00;;;;;;5073817;28;20379;-80
2021/03/25 14:49:03;;;;;;;34.60;14.67;;;18.50;1.00;;;;;;5073255;28;20415;-81
2021/03/25 14:58:13;;;;;;;30.63;13.27;;;18.50;1.00;;;;;;5062419;28;20426;-80
2021/03/25 15:00:44;;;;;;;31.40;13.40;;;18.70;1.00;;;;;;5073350;28;20411;-75
2021/03/25 15:03:27;;;;;;;34.33;13.97;;;18.90;1.00;;;;;;5073345;28;20169;-76
2021/03/25 15:06:24;;;;;;;47.20;14.50;;;19.10;1.00;;;;;;5073209;28;20396;-76
2021/03/25 15:08:54;;;;;;;38.80;15.50;;;19.20;1.00;;;;;;5071572;28;20416;-77
2021/03/25 15:11:36;;;;;;;41.77;14.23;;;19.00;1.00;;;;;;5055539;28;20456;-77
2021/03/25 15:14:23;;;;;;;34.67;13.83;;;18.90;1.00;;;;;;5053205;28;20409;-77
2021/03/25 15:16:55;;;;;;;35.07;15.47;;;18.80;1.00;;;;;;5053403;28;20884;-76
2021/03/25 15:19:25;;;;;;;37.73;15.23;;;;;;;;;;5053168;28;20914;-76
2021/03/25 15:25:24;;;;;;;32.10;14.20;;;19.80;1.00;;;;;;5073384;28;20416;-77
2021/03/25 15:27:54;;;;;;;40.37;15.00;;;20.50;1.00;;;;;;5072807;28;20754;-77
2021/03/25 15:30:23;;;;;;;35.27;13.20;;;;;;;;;;5069645;28;20458;-77
2021/03/25 15:33:01;;;;;;;39.77;14.40;;;20.50;1.00;;;;;;5075150;28;20796;-77
2021/03/25 15:36:00;;;;;;;34.13;14.13;;;21.00;1.00;;;;;;5076787;28;20438;-77
2021/03/25 15:39:12;;;;;;;35.30;13.63;;;20.80;1.00;;;;;;5075402;28;20488;-77
2021/03/25 15:41:38;;;;;;;31.00;14.80;;;20.30;1.00;;;;;;5074326;28;20429;-77
2021/03/25 15:44:08;;;;;;;35.50;14.73;;;20.00;1.00;;;;;;5075401;28;20428;-77
2021/03/25 15:46:34;;;;;;;28.43;13.00;;;;;;;;;;5069979;28;20474;-77
2021/03/25 15:49:00;;;;;;;29.97;13.87;;;;;;;;;;5070956;28;20961;-75
2021/03/25 15:51:29;;;;;;;30.83;13.93;;;20.80;1.00;;;;;;5075634;28;20480;-75
2021/03/25 15:53:55;;;;;;;30.77;13.23;;;;;;;;;;5075595;28;20399;-75
2021/03/25 15:56:23;;;;;;;29.70;12.67;;;21.50;1.00;;;;;;5072842;28;20487;-75
2021/03/25 15:58:49;;;;;;;27.23;12.33;;;;;;;;;;5069491;28;20461;-76